Time;durP1;ratioP1;P1;durP2;ratioP2;P2;SDS_P1;SDS_P2;PMS_P1;PMS_P2;Temp;Humidity;BMP_temperature;BMP_pressure;BME280_temperature;BME280_humidity;BME280_pressure;Samples;Min_cycle;Max_cycle;Signal;HPM_P1;HPM_P2
2022/11/15 00:01:38;;;;;;;13.27;6.32;;;;;;;6.88;96.15;100897.59;5011157;28;113689;-31
2022/11/15 00:04:04;;;;;;;8.65;5.55;;;;;;;6.89;95.45;100891.28;5011622;28;97781;-32
2022/11/15 00:06:30;;;;;;;19.52;5.80;;;;;;;6.93;95.24;100894.69;5010098;28;96529;-31
2022/11/15 00:08:58;;;;;;;18.13;5.53;;;;;;;6.89;95.62;100893.09;5011732;28;96764;-31
2022/11/15 00:11:23;;;;;;;10.27;5.65;;;;;;;6.89;95.88;100895.78;5011203;28;97355;-31
2022/11/15 00:13:49;;;;;;;12.85;4.82;;;;;;;6.90;96.09;100901.09;5011474;28;97849;-31
2022/11/15 00:16:14;;;;;;;12.50;6.15;;;;;;;6.90;95.65;100892.16;5011443;28;96792;-31
2022/11/15 00:18:40;;;;;;;9.63;5.05;;;;;;;6.93;96.95;100894.69;5011361;28;96931;-31
2022/11/15 00:21:07;;;;;;;12.98;5.75;;;;;;;6.94;96.41;100885.69;5011548;28;96869;-31
2022/11/15 00:23:33;;;;;;;14.77;6.28;;;;;;;6.95;95.87;100879.34;5011347;28;97330;-32
2022/11/15 00:25:59;;;;;;;13.15;4.93;;;;;;;6.97;96.31;100882.84;5011574;28;96596;-31
2022/11/15 00:28:25;;;;;;;13.45;5.38;;;;;;;6.99;96.64;100887.22;5011627;28;98000;-32
2022/11/15 00:30:51;;;;;;;13.32;5.57;;;;;;;7.01;96.09;100877.25;5010803;28;100858;-32
2022/11/15 00:33:16;;;;;;;13.93;6.72;;;;;;;7.00;96.29;100880.00;5014643;28;98461;-31
2022/11/15 00:35:41;;;;;;;14.13;4.63;;;;;;;7.06;95.94;100886.94;5014417;28;96641;-32
2022/11/15 00:38:07;;;;;;;11.60;5.30;;;;;;;7.06;96.33;100876.19;5014779;28;96680;-31
2022/11/15 00:40:32;;;;;;;13.43;5.05;;;;;;;7.05;96.46;100875.28;5014621;28;97765;-31
2022/11/15 00:42:58;;;;;;;14.68;6.65;;;;;;;7.06;97.47;100865.41;5014184;28;99151;-32
2022/11/15 00:45:23;;;;;;;17.38;5.22;;;;;;;7.08;97.19;100872.47;5014806;28;96558;-31
2022/11/15 00:47:49;;;;;;;18.65;6.35;;;;;;;7.12;97.65;100870.50;5013151;28;96842;-31
2022/11/15 00:50:15;;;;;;;13.50;6.38;;;;;;;7.12;96.50;100870.50;5013006;28;100753;-32
2022/11/15 00:52:40;;;;;;;13.43;5.10;;;;;;;7.13;97.24;100867.72;5014601;28;99869;-33
2022/11/15 00:55:06;;;;;;;18.00;6.40;;;;;;;7.15;97.26;100862.25;5014598;28;96454;-32
2022/11/15 00:57:31;;;;;;;17.48;6.78;;;;;;;7.15;98.17;100857.75;5014190;28;96871;-31
2022/11/15 00:59:56;;;;;;;19.90;7.53;;;;;;;7.17;98.39;100854.97;5013314;28;116999;-32
2022/11/15 01:02:22;;;;;;;17.25;5.97;;;;;;;7.20;97.70;100855.72;5013675;28;120677;-31
2022/11/15 01:04:47;;;;;;;14.55;5.60;;;;;;;7.23;97.89;100854.69;5013971;28;96808;-31
2022/11/15 01:07:13;;;;;;;15.10;6.45;;;;;;;7.24;98.40;100856.44;5013895;28;106648;-31
2022/11/15 01:09:38;;;;;;;16.58;6.47;;;;;;;7.27;98.03;100847.34;5014258;28;97487;-31
2022/11/15 01:12:04;;;;;;;12.63;4.72;;;;;;;7.29;97.88;100856.22;5013417;28;105613;-31
2022/11/15 01:14:29;;;;;;;20.35;7.45;;;;;;;7.30;97.56;100844.50;5012852;28;97814;-30
2022/11/15 01:16:54;;;;;;;15.82;6.55;;;;;;;7.32;97.89;100853.41;5014103;28;98340;-31
2022/11/15 01:19:20;;;;;;;17.95;7.32;;;;;;;7.36;97.71;100849.59;5013834;28;106781;-31
2022/11/15 01:21:45;;;;;;;13.15;6.25;;;;;;;7.40;97.57;100851.19;5013678;28;97913;-31
2022/11/15 01:24:12;;;;;;;18.90;6.82;;;;;;;7.42;97.67;100849.31;5013719;28;96508;-31
2022/11/15 01:26:38;;;;;;;22.77;7.10;;;;;;;7.42;98.53;100846.59;5012276;28;96734;-32
2022/11/15 01:29:04;;;;;;;12.10;6.13;;;;;;;7.45;97.66;100838.38;5014031;28;98486;-32
2022/11/15 01:31:29;;;;;;;15.30;6.60;;;;;;;7.44;97.84;100836.63;5012254;28;100801;-31
2022/11/15 01:33:54;;;;;;;18.10;6.57;;;;;;;7.47;98.74;100833.78;5014284;28;96819;-31
2022/11/15 01:36:22;;;;;;;19.27;7.85;;;;;;;7.49;99.30;100834.59;5014126;28;96787;-31
2022/11/15 01:38:56;;;;;;;18.95;9.00;;;;;;;7.49;98.61;100821.09;5012255;28;101367;-31
2022/11/15 01:41:24;;;;;;;21.65;7.85;;;;;;;7.52;98.55;100820.06;5012020;28;101031;-31
2022/11/15 01:43:53;;;;;;;17.10;7.35;;;;;;;7.54;98.11;100813.66;5012311;28;96621;-31
2022/11/15 01:46:28;;;;;;;18.98;6.40;;;;;;;7.57;99.71;100812.63;5012178;28;97096;-31
2022/11/15 01:48:57;;;;;;;13.18;5.85;;;;;;;7.60;98.99;100815.16;5011719;28;100937;-31
2022/11/15 01:51:26;;;;;;;19.77;7.90;;;;;;;7.61;99.24;100809.72;5013647;28;97292;-33
2022/11/15 01:53:55;;;;;;;14.50;6.82;;;;;;;7.67;99.53;100811.22;5012259;28;96570;-31
2022/11/15 01:56:25;;;;;;;17.60;8.15;;;;;;;7.66;99.07;100807.66;5012153;28;96785;-31
2022/11/15 01:58:52;;;;;;;17.15;7.07;;;;;;;7.73;99.12;100810.06;5011903;28;102068;-31
2022/11/15 02:01:18;;;;;;;16.55;7.80;;;;;;;7.73;99.13;100805.53;5011938;28;100955;-31
2022/11/15 02:03:52;;;;;;;15.73;6.68;;;;;;;7.79;98.98;100809.72;5013629;28;96586;-31
2022/11/15 02:06:19;;;;;;;18.05;6.60;;;;;;;7.80;99.14;100800.72;5012106;28;96760;-31
2022/11/15 02:08:44;;;;;;;19.08;7.88;;;;;;;7.82;98.83;100796.13;5011755;28;99133;-31
2022/11/15 02:11:10;;;;;;;17.45;6.85;;;;;;;7.85;99.35;100793.25;5013210;28;100469;-31
2022/11/15 02:13:37;;;;;;;26.42;6.78;;;;;;;7.85;99.77;100782.47;5011245;28;97247;-31
2022/11/15 02:16:13;;;;;;;20.98;7.28;;;;;;;7.91;99.96;100782.13;5011618;28;97175;-31
2022/11/15 02:18:44;;;;;;;12.93;6.88;;;;;;;7.93;99.18;100779.38;5012687;28;99361;-31
2022/11/15 02:21:25;;;;;;;17.27;6.78;;;;;;;7.95;99.79;100781.03;5011393;28;101410;-32
2022/11/15 02:24:32;;;;;;;16.55;6.13;;;;;;;8.00;100.00;100770.88;5013546;28;96570;-31
2022/11/15 02:27:33;;;;;;;11.57;4.85;;;;;;;8.03;100.00;100776.13;5011512;28;97390;-31
2022/11/15 02:30:19;;;;;;;15.88;6.80;;;;;;;8.08;100.00;100765.09;4988394;28;97455;-30
2022/11/15 02:32:54;;;;;;;7.30;3.83;;;;;;;8.15;100.00;100771.00;5011762;28;101195;-31
2022/11/15 02:35:27;;;;;;;10.38;5.25;;;;;;;8.19;100.00;100759.13;5011426;28;96883;-31
2022/11/15 02:38:02;;;;;;;13.07;5.43;;;;;;;8.26;100.00;100760.53;5013019;28;96603;-30
2022/11/15 02:40:34;;;;;;;10.68;4.68;;;;;;;8.32;100.00;100760.22;5010841;28;101069;-31
2022/11/15 02:46:14;;;;;;;11.35;5.07;;;;;;;8.42;100.00;100750.69;5012967;28;96620;-31
2022/11/15 02:48:42;;;;;;;15.43;6.53;;;;;;;8.43;100.00;100755.13;5011350;28;96836;-31
2022/11/15 02:51:09;;;;;;;15.98;6.00;;;;;;;8.49;100.00;100752.09;5011150;28;101017;-31
2022/11/15 02:53:34;;;;;;;6.88;3.90;;;;;;;8.53;100.00;100752.78;5011614;28;97349;-32
2022/11/15 02:56:00;;;;;;;9.85;4.10;;;;;;;8.57;100.00;100751.69;5012542;28;96490;-31
2022/11/15 02:58:47;;;;;;;10.82;4.93;;;;;;;8.62;100.00;100748.72;5012762;28;96848;-31
2022/11/15 03:01:19;;;;;;;10.88;4.93;;;;;;;8.66;100.00;100750.31;5010910;28;101061;-31
2022/11/15 03:04:15;;;;;;;12.07;5.53;;;;;;;8.68;100.00;100743.88;5012569;28;98101;-32
2022/11/15 03:07:07;;;;;;;15.15;5.55;;;;;;;8.75;100.00;100740.81;5011043;28;96792;-31
2022/11/15 03:10:17;;;;;;;10.40;5.45;;;;;;;8.78;100.00;100736.13;5010270;28;122755;-32
2022/11/15 03:12:51;;;;;;;10.93;5.38;;;;;;;8.82;100.00;100742.22;5010968;28;101248;-33
2022/11/15 03:15:37;;;;;;;8.68;5.15;;;;;;;8.88;100.00;100744.56;5010465;28;101312;-31
2022/11/15 03:18:29;;;;;;;8.20;4.28;;;;;;;8.90;100.00;100746.22;5010931;28;96640;-31
2022/11/15 03:20:57;;;;;;;9.40;3.83;;;;;;;8.91;100.00;100734.50;5012513;28;96553;-32
2022/11/15 03:23:24;;;;;;;10.98;5.32;;;;;;;8.96;100.00;100734.19;5010102;28;101070;-31
2022/11/15 03:25:51;;;;;;;9.50;5.00;;;;;;;8.96;100.00;100741.44;5011127;28;100737;-32
2022/11/15 03:28:23;;;;;;;10.27;3.95;;;;;;;8.99;100.00;100744.84;5010521;28;96580;-31
2022/11/15 03:30:50;;;;;;;6.82;4.25;;;;;;;9.01;100.00;100740.25;5010828;28;96648;-31
2022/11/15 03:33:16;;;;;;;8.25;4.63;;;;;;;9.04;100.00;100744.59;5010029;28;101113;-31
2022/11/15 03:35:45;;;;;;;9.23;4.57;;;;;;;9.08;100.00;100748.84;5011918;28;97809;-31
2022/11/15 03:38:25;;;;;;;12.15;5.47;;;;;;;9.13;100.00;100744.94;5010742;28;96812;-32
2022/11/15 03:41:18;;;;;;;15.52;4.20;;;;;;;9.18;100.00;100743.81;5010596;28;96702;-31
2022/11/15 03:44:04;;;;;;;10.30;4.63;;;;;;;9.21;100.00;100747.19;5011760;28;97624;-32
2022/11/15 03:49:34;;;;;;;6.35;2.85;;;;;;;9.31;100.00;100745.69;5012328;28;96662;-31
2022/11/15 03:52:01;;;;;;;8.38;3.40;;;;;;;9.31;100.00;100743.00;5012257;28;96637;-30
2022/11/15 03:54:26;;;;;;;7.60;3.83;;;;;;;9.34;100.00;100747.34;5010212;28;100965;-32
2022/11/15 03:56:52;;;;;;;8.63;3.70;;;;;;;9.38;100.00;100739.94;5011774;28;97780;-30
2022/11/15 03:59:17;;;;;;;8.05;4.13;;;;;;;9.40;100.00;100740.72;5011127;28;96537;-31
2022/11/15 04:01:42;;;;;;;5.43;3.28;;;;;;;9.43;100.00;100737.84;5011332;28;111160;-31
2022/11/15 04:04:08;;;;;;;7.38;3.03;;;;;;;9.43;100.00;100729.72;5011463;28;98535;-31
2022/11/15 04:06:33;;;;;;;6.45;3.38;;;;;;;9.46;100.00;100733.13;5015134;28;98037;-33
2022/11/15 04:08:59;;;;;;;5.20;2.92;;;;;;;9.49;100.00;100732.09;5013422;28;96643;-31
2022/11/15 04:11:24;;;;;;;7.85;3.78;;;;;;;9.50;100.00;100728.41;5014921;28;103507;-31
2022/11/15 04:13:49;;;;;;;8.40;3.45;;;;;;;9.50;100.00;100720.28;5014535;28;117971;-31
2022/11/15 04:16:15;;;;;;;6.25;3.33;;;;;;;9.50;100.00;100718.44;5015036;28;99179;-30
2022/11/15 04:18:40;;;;;;;8.13;3.35;;;;;;;9.50;100.00;100717.59;5014604;28;110858;-32
2022/11/15 04:26:34;;;;;;;4.93;2.90;;;;;;;9.58;100.00;100712.56;5013301;28;97103;-31
2022/11/15 04:31:44;;;;;;;4.38;2.92;;;;;;;9.61;100.00;100715.13;5015374;28;96657;-30
2022/11/15 04:34:09;;;;;;;6.60;3.35;;;;;;;9.63;100.00;100724.03;5013627;28;119578;-31
2022/11/15 04:39:18;;;;;;;8.45;3.22;;;;;;;9.67;100.00;100727.41;5015047;28;96661;-30
2022/11/15 04:41:43;;;;;;;8.25;3.95;;;;;;;9.68;100.00;100724.63;5014972;28;108698;-31
2022/11/15 04:44:09;;;;;;;8.00;3.40;;;;;;;9.72;100.00;100723.44;5014706;28;97876;-31
2022/11/15 04:46:34;;;;;;;9.27;3.17;;;;;;;9.77;100.00;100729.47;5014331;28;99089;-32
2022/11/15 04:49:00;;;;;;;6.13;2.70;;;;;;;9.79;100.00;100735.63;5014157;28;96609;-31
2022/11/15 04:51:26;;;;;;;6.78;3.60;;;;;;;9.82;100.00;100737.31;5014519;28;101535;-32
2022/11/15 04:53:52;;;;;;;7.25;3.22;;;;;;;9.84;100.00;100738.06;5013034;28;100960;-31
2022/11/15 04:56:17;;;;;;;7.05;3.65;;;;;;;9.89;100.00;100744.09;5014463;28;98307;-32
2022/11/15 04:58:42;;;;;;;5.32;3.30;;;;;;;9.91;100.00;100739.44;5014679;28;96659;-31
2022/11/15 05:01:14;;;;;;;6.20;2.75;;;;;;;9.91;100.00;100742.13;5014531;28;96823;-32
2022/11/15 05:06:24;;;;;;;5.07;2.78;;;;;;;9.93;100.00;100750.19;5015150;28;97261;-30
2022/11/15 05:08:49;;;;;;;6.47;3.15;;;;;;;9.96;100.00;100745.47;5014350;28;96671;-31
2022/11/15 05:11:15;;;;;;;7.05;2.90;;;;;;;9.97;100.00;100743.63;5013089;28;96986;-31
2022/11/15 05:13:40;;;;;;;6.70;3.13;;;;;;;9.99;100.00;100745.28;5013418;28;99009;-32
2022/11/15 05:16:05;;;;;;;7.93;2.80;;;;;;;9.99;100.00;100747.13;5013246;28;107609;-31
2022/11/15 05:18:31;;;;;;;5.97;3.40;;;;;;;10.00;100.00;100744.28;5014305;28;96450;-32
2022/11/15 05:21:03;;;;;;;7.57;3.00;;;;;;;10.00;100.00;100743.44;5014265;28;96818;-31
2022/11/15 05:23:28;;;;;;;4.40;2.65;;;;;;;10.02;100.00;100746.91;5012515;28;100948;-31
2022/11/15 05:25:59;;;;;;;5.10;3.13;;;;;;;9.99;100.00;100737.16;5013311;28;116923;-32
2022/11/15 05:28:24;;;;;;;5.78;2.20;;;;;;;10.00;100.00;100738.88;5012454;28;96698;-32
2022/11/15 05:30:49;;;;;;;3.75;2.22;;;;;;;9.99;100.00;100733.59;5013689;28;114186;-31
2022/11/15 05:33:15;;;;;;;4.13;2.10;;;;;;;10.02;100.00;100736.09;5013485;28;106034;-30
2022/11/15 05:35:46;;;;;;;5.38;2.30;;;;;;;10.02;100.00;100736.09;5013805;28;97906;-31
2022/11/15 05:38:11;;;;;;;3.47;2.08;;;;;;;10.00;100.00;100729.91;5013507;28;96545;-32
2022/11/15 05:40:36;;;;;;;3.70;2.42;;;;;;;10.02;100.00;100736.09;5013864;28;103088;-31
2022/11/15 05:43:04;;;;;;;4.68;2.20;;;;;;;10.02;100.00;100743.34;5013642;28;97369;-30
2022/11/15 05:45:31;;;;;;;8.77;2.58;;;;;;;9.99;100.00;100734.44;5012047;28;100676;-31
2022/11/15 05:47:59;;;;;;;4.35;2.15;;;;;;;9.99;100.00;100736.28;5012255;28;96699;-32
2022/11/15 05:50:25;;;;;;;9.23;2.50;;;;;;;9.99;100.00;100741.69;5012166;28;96807;-31
2022/11/15 05:52:51;;;;;;;9.25;2.83;;;;;;;10.00;100.00;100746.13;5012662;28;97347;-31
2022/11/15 05:55:16;;;;;;;2.83;2.08;;;;;;;9.99;100.00;100747.97;5012182;28;100742;-31
2022/11/15 05:57:42;;;;;;;3.10;2.10;;;;;;;9.98;100.00;100743.50;5013498;28;96411;-32
2022/11/15 06:00:09;;;;;;;11.73;2.55;;;;;;;9.96;100.00;100737.34;5013678;28;96423;-32
2022/11/15 06:02:34;;;;;;;3.90;1.92;;;;;;;9.99;100.00;100747.13;5011478;28;101136;-31
2022/11/15 06:05:00;;;;;;;4.00;1.98;;;;;;;9.98;100.00;100742.66;5012973;28;99168;-32
2022/11/15 06:07:25;;;;;;;2.95;1.88;;;;;;;10.00;100.00;100751.53;5013425;28;96555;-31
2022/11/15 06:09:50;;;;;;;4.82;2.22;;;;;;;9.97;99.80;100749.91;5013083;28;107432;-31
2022/11/15 06:12:16;;;;;;;5.55;1.92;;;;;;;9.99;100.00;100755.22;5013066;28;99699;-31
2022/11/15 06:14:41;;;;;;;3.67;1.88;;;;;;;9.97;99.68;100759.84;5013169;28;97957;-31
2022/11/15 06:17:06;;;;;;;2.95;1.52;;;;;;;9.97;99.91;100766.13;5012717;28;109298;-31
2022/11/15 06:19:32;;;;;;;3.22;1.65;;;;;;;9.94;99.20;100763.63;5013293;28;103489;-31
2022/11/15 06:21:59;;;;;;;4.43;1.50;;;;;;;9.91;99.12;100780.03;5012278;28;99488;-31
2022/11/15 06:24:24;;;;;;;2.90;1.52;;;;;;;9.89;99.06;100767.53;5011553;28;101481;-32
2022/11/15 06:26:50;;;;;;;2.97;1.60;;;;;;;9.86;98.90;100773.16;5012337;28;96466;-32
2022/11/15 06:29:15;;;;;;;2.90;1.48;;;;;;;9.87;99.01;100774.91;5013060;28;96736;-30
2022/11/15 06:31:40;;;;;;;2.30;1.27;;;;;;;9.85;99.06;100777.69;5013119;28;97896;-30
2022/11/15 06:34:06;;;;;;;2.40;1.42;;;;;;;9.82;98.97;100768.88;5012301;28;118207;-32
2022/11/15 06:36:34;;;;;;;3.38;1.58;;;;;;;9.82;98.97;100771.59;5012925;28;96529;-31
2022/11/15 06:38:59;;;;;;;3.45;1.65;;;;;;;9.78;99.03;100766.38;5011419;28;96814;-31
2022/11/15 06:41:25;;;;;;;2.35;1.45;;;;;;;9.76;98.90;100756.59;5012553;28;106101;-31
2022/11/15 06:43:50;;;;;;;3.58;1.83;;;;;;;9.75;98.97;100766.56;5013180;28;97872;-31
2022/11/15 06:46:15;;;;;;;3.05;1.65;;;;;;;9.74;98.92;100766.63;5012809;28;96460;-31
2022/11/15 06:48:41;;;;;;;7.30;2.15;;;;;;;9.73;98.96;100770.31;5012683;28;96771;-31
2022/11/15 06:51:07;;;;;;;6.65;1.80;;;;;;;9.76;98.71;100791.75;5012250;28;97847;-31
2022/11/15 06:53:32;;;;;;;2.17;1.38;;;;;;;9.71;99.05;100783.91;5012703;28;97863;-31
2022/11/15 06:56:00;;;;;;;4.10;1.70;;;;;;;9.71;99.05;100786.63;5012610;28;96509;-31
2022/11/15 06:58:25;;;;;;;4.03;2.03;;;;;;;9.70;98.70;100782.19;5011327;28;96743;-30
2022/11/15 07:00:51;;;;;;;5.63;2.30;;;;;;;9.72;98.88;100782.09;5012384;28;99446;-32
2022/11/15 07:03:16;;;;;;;5.72;1.92;;;;;;;9.72;98.39;100782.94;5012599;28;97916;-32
2022/11/15 07:05:41;;;;;;;5.75;2.42;;;;;;;9.74;98.50;100780.16;5012349;28;99925;-34
2022/11/15 07:08:07;;;;;;;4.15;2.10;;;;;;;9.72;98.29;100773.97;5011512;28;96863;-31
2022/11/15 07:10:32;;;;;;;7.68;2.08;;;;;;;9.73;97.91;100778.44;5012680;28;97418;-31
2022/11/15 07:12:57;;;;;;;3.25;1.95;;;;;;;9.71;97.81;100786.63;5012464;28;97804;-30
2022/11/15 07:15:25;;;;;;;4.90;2.03;;;;;;;9.73;97.66;100787.41;5011842;28;96769;-31
2022/11/15 07:17:50;;;;;;;3.58;1.38;;;;;;;9.76;97.69;100783.66;5010851;28;96939;-31
2022/11/15 07:20:16;;;;;;;4.30;2.10;;;;;;;9.73;97.41;100787.41;5012220;28;97559;-31
2022/11/15 07:22:42;;;;;;;2.85;1.60;;;;;;;9.72;97.44;100785.66;5009650;28;100829;-31
2022/11/15 07:25:08;;;;;;;6.25;1.70;;;;;;;9.74;97.19;100793.69;5012159;28;96480;-31
2022/11/15 07:27:34;;;;;;;3.22;1.67;;;;;;;9.73;97.04;100792.81;5010696;28;96835;-31
2022/11/15 07:29:59;;;;;;;4.97;1.90;;;;;;;9.75;96.80;100790.03;5011950;28;99422;-32
2022/11/15 07:32:24;;;;;;;2.88;1.38;;;;;;;9.73;96.52;100787.41;5012495;28;97765;-31
2022/11/15 07:34:50;;;;;;;6.22;1.83;;;;;;;9.71;96.53;100781.22;5010607;28;96670;-31
2022/11/15 07:37:16;;;;;;;4.05;2.13;;;;;;;9.74;96.56;100780.16;5010447;28;96958;-31
2022/11/15 07:39:42;;;;;;;4.20;1.75;;;;;;;9.68;96.33;100773.28;5012098;28;100913;-32
2022/11/15 07:44:51;;;;;;;6.78;1.90;;;;;;;9.67;96.66;100779.66;5018972;28;96592;-32
2022/11/15 07:47:16;;;;;;;11.20;2.42;;;;;;;9.68;96.48;100784.13;5018798;28;96917;-31
2022/11/15 07:49:41;;;;;;;3.38;1.98;;;;;;;9.67;96.62;100782.34;5018273;28;105210;-31
2022/11/15 07:52:07;;;;;;;4.53;2.05;;;;;;;9.66;96.70;100782.47;5017952;28;115929;-33
2022/11/15 07:54:32;;;;;;;2.83;2.00;;;;;;;9.63;96.66;100771.81;5018623;28;99124;-31
2022/11/15 07:56:57;;;;;;;4.75;2.50;;;;;;;9.61;96.72;100769.22;5018902;28;105610;-32
2022/11/15 07:59:23;;;;;;;6.78;2.65;;;;;;;9.62;96.37;100770.94;5017998;28;108085;-31
2022/11/15 08:01:48;;;;;;;5.50;2.85;;;;;;;9.63;96.63;100766.38;5018266;28;111613;-31
2022/11/15 08:04:13;;;;;;;6.50;2.95;;;;;;;9.62;96.47;100760.13;5017802;28;96700;-31
2022/11/15 08:06:39;;;;;;;12.10;3.33;;;;;;;9.59;96.71;100757.59;5018347;28;96486;-32
2022/11/15 08:09:04;;;;;;;3.33;1.95;;;;;;;9.62;96.77;100753.84;5018234;28;97836;-31
2022/11/15 08:11:29;;;;;;;5.40;2.10;;;;;;;9.60;96.90;100745.81;5018111;28;99192;-32
2022/11/15 08:13:55;;;;;;;5.93;3.03;;;;;;;9.63;96.84;100745.66;5018027;28;102080;-31
2022/11/15 08:16:21;;;;;;;7.28;2.65;;;;;;;9.67;96.70;100749.03;5018325;28;97186;-31
2022/11/15 08:18:46;;;;;;;5.88;2.25;;;;;;;9.69;96.59;100753.38;5017636;28;111313;-31
2022/11/15 08:21:17;;;;;;;7.57;3.08;;;;;;;9.72;96.54;100757.75;5016805;28;98258;-31
2022/11/15 08:23:43;;;;;;;11.52;3.95;;;;;;;9.71;96.64;100754.16;5016428;28;96554;-30
2022/11/15 08:26:08;;;;;;;8.60;3.20;;;;;;;9.74;96.55;100747.72;5018383;28;96734;-31
2022/11/15 08:28:34;;;;;;;7.20;3.20;;;;;;;9.77;96.45;100743.00;5016027;28;101136;-33
2022/11/15 08:31:01;;;;;;;7.35;3.53;;;;;;;9.77;96.46;100743.00;5018430;28;96640;-32
2022/11/15 08:33:27;;;;;;;4.38;2.30;;;;;;;9.80;96.14;100739.22;5016573;28;96743;-31
2022/11/15 08:35:56;;;;;;;3.97;2.08;;;;;;;9.79;96.07;100735.63;5016624;28;97448;-33
2022/11/15 08:38:22;;;;;;;5.10;2.88;;;;;;;9.83;95.99;100730.06;5016535;28;101166;-32
2022/11/15 08:40:47;;;;;;;8.23;3.42;;;;;;;9.80;95.67;100723.00;5017963;28;97634;-31
2022/11/15 08:43:12;;;;;;;9.95;2.28;;;;;;;9.82;95.64;100720.19;5017749;28;105836;-31
2022/11/15 08:45:38;;;;;;;6.57;2.85;;;;;;;9.85;95.56;100712.78;5018509;28;96809;-31
2022/11/15 08:48:03;;;;;;;3.55;1.92;;;;;;;9.87;95.20;100716.25;5017779;28;97933;-32
2022/11/15 08:50:29;;;;;;;6.78;2.22;;;;;;;9.89;94.92;100713.44;5017126;28;97753;-31
2022/11/15 08:52:54;;;;;;;4.97;2.33;;;;;;;9.89;94.96;100716.13;5013108;28;96576;-31
2022/11/15 08:55:19;;;;;;;2.78;1.70;;;;;;;9.93;94.72;100723.13;5014654;28;96786;-31
2022/11/15 08:57:45;;;;;;;5.10;2.28;;;;;;;9.96;94.61;100731.03;5014523;28;99844;-32
2022/11/15 09:00:12;;;;;;;5.90;2.80;;;;;;;9.96;94.45;100725.63;5014215;28;99401;-31
2022/11/15 09:02:38;;;;;;;9.48;3.67;;;;;;;9.96;94.32;100726.53;5014227;28;96652;-31
2022/11/15 09:05:04;;;;;;;9.65;2.38;;;;;;;10.01;93.90;100726.25;5012667;28;96918;-31
2022/11/15 09:07:31;;;;;;;10.77;2.10;;;;;;;9.99;93.42;100729.03;5012621;28;102551;-31
2022/11/15 09:09:57;;;;;;;4.68;2.33;;;;;;;10.03;93.59;100721.59;5013011;28;100797;-30
2022/11/15 09:12:22;;;;;;;10.43;2.47;;;;;;;10.09;93.39;100720.34;5014009;28;96490;-31
2022/11/15 09:14:48;;;;;;;3.85;2.33;;;;;;;10.15;93.14;100720.84;5014288;28;96775;-31
2022/11/15 09:17:13;;;;;;;5.10;2.20;;;;;;;10.20;93.26;100721.44;5013386;28;97914;-31
2022/11/15 09:19:38;;;;;;;3.25;1.92;;;;;;;10.27;92.18;100719.19;5013508;28;105936;-31
2022/11/15 09:22:07;;;;;;;4.93;2.17;;;;;;;10.33;92.91;100726.13;5014252;28;96695;-31
2022/11/15 09:24:33;;;;;;;3.35;1.85;;;;;;;10.44;92.35;100723.59;5014417;28;96804;-30
2022/11/15 09:26:59;;;;;;;1.80;1.42;;;;;;;10.51;91.87;100724.97;5012520;28;101423;-31
2022/11/15 09:29:24;;;;;;;3.08;1.83;;;;;;;10.60;92.24;100726.19;5013928;28;97800;-32
2022/11/15 09:31:52;;;;;;;3.17;1.80;;;;;;;10.65;91.13;100717.78;5013821;28;96639;-31
2022/11/15 09:34:17;;;;;;;3.28;1.73;;;;;;;10.70;90.48;100712.94;5012774;28;96871;-31
2022/11/15 09:36:42;;;;;;;3.30;1.67;;;;;;;10.75;90.28;100718.91;5013849;28;97913;-31
2022/11/15 09:39:08;;;;;;;5.60;2.13;;;;;;;10.82;90.52;100712.13;5013876;28;97329;-32
2022/11/15 09:42:19;;;;;;;5.55;1.77;;;;;;;10.92;89.50;100716.00;5013638;28;96477;-32
2022/11/15 09:45:07;;;;;;;3.08;1.92;;;;;;;10.97;88.65;100721.13;5010124;28;96823;-32
2022/11/15 09:47:36;;;;;;;3.67;1.73;;;;;;;11.01;89.05;100712.69;5012171;28;100789;-32
2022/11/15 09:50:09;;;;;;;3.55;1.52;;;;;;;10.99;87.69;100695.66;5013480;28;98892;-32
2022/11/15 09:52:37;;;;;;;3.33;1.30;;;;;;;11.07;87.88;100697.84;5012292;28;96661;-32
2022/11/15 09:55:05;;;;;;;8.10;2.05;;;;;;;11.11;87.74;100687.66;5012023;28;96937;-31
2022/11/15 09:57:54;;;;;;;5.72;1.90;;;;;;;11.08;86.68;100694.16;5011898;28;100822;-32
2022/11/15 10:00:25;;;;;;;6.95;1.85;;;;;;;11.02;87.53;100690.03;5012274;28;100623;-32
2022/11/15 10:03:12;;;;;;;3.03;1.70;;;;;;;11.02;86.66;100692.75;5011934;28;96577;-31
2022/11/15 10:05:46;;;;;;;8.32;2.78;;;;;;;11.00;85.91;100682.97;5013257;28;96532;-31
2022/11/15 10:08:40;;;;;;;9.68;3.05;;;;;;;11.09;87.07;100678.78;5012496;28;99572;-31
2022/11/15 10:11:10;;;;;;;5.28;2.15;;;;;;;11.18;85.91;100678.19;5011905;28;100925;-31
2022/11/15 10:13:41;;;;;;;2.88;1.48;;;;;;;11.27;86.19;100672.13;5011911;28;96697;-31
2022/11/15 10:16:41;;;;;;;4.57;2.22;;;;;;;11.37;85.45;100684.09;5011926;28;96773;-31
2022/11/15 10:19:13;;;;;;;2.53;1.73;;;;;;;11.37;83.46;100684.09;5013344;28;98074;-31
2022/11/15 10:21:54;;;;;;;2.95;1.52;;;;;;;11.41;84.58;100673.91;5011394;28;100730;-31
2022/11/15 10:24:30;;;;;;;3.30;1.70;;;;;;;11.58;84.82;100667.31;5011939;28;96590;-31
2022/11/15 10:26:56;;;;;;;2.40;1.42;;;;;;;11.60;84.12;100649.09;5013906;28;96477;-32
2022/11/15 10:29:24;;;;;;;3.13;1.60;;;;;;;11.70;83.40;100658.34;5011301;28;100091;-31
2022/11/15 10:31:49;;;;;;;3.47;1.20;;;;;;;11.72;82.54;100644.66;5011596;28;100731;-31
2022/11/15 10:34:21;;;;;;;6.45;1.77;;;;;;;11.80;83.53;100640.44;5012485;28;96470;-31
2022/11/15 10:36:57;;;;;;;5.82;1.80;;;;;;;11.80;82.47;100632.31;5011540;28;97214;-31
2022/11/15 10:39:23;;;;;;;2.42;1.45;;;;;;;11.82;83.34;100638.50;5012832;28;98125;-31
2022/11/15 10:41:49;;;;;;;7.30;2.20;;;;;;;11.74;82.97;100623.72;5011292;28;101133;-32
2022/11/15 10:44:19;;;;;;;2.10;1.42;;;;;;;11.75;82.66;100637.19;5013035;28;96606;-31
2022/11/15 10:46:50;;;;;;;6.20;2.70;;;;;;;11.65;82.68;100636.09;5012740;28;96809;-33
2022/11/15 10:49:19;;;;;;;4.18;1.80;;;;;;;11.55;81.18;100626.84;5011071;28;101049;-31
2022/11/15 10:52:11;;;;;;;2.63;1.08;;;;;;;11.48;80.75;100627.25;5012825;28;99350;-32
2022/11/15 10:54:42;;;;;;;1.73;0.90;;;;;;;11.46;81.32;100629.25;5009778;28;96952;-31
2022/11/15 10:57:14;;;;;;;4.53;1.35;;;;;;;11.54;81.69;100619.69;5011340;28;96671;-31
2022/11/15 10:59:45;;;;;;;5.97;1.60;;;;;;;11.65;81.19;100615.25;5012156;28;98221;-31
2022/11/15 11:02:28;;;;;;;5.85;1.48;;;;;;;11.75;80.60;100612.78;5012619;28;97790;-31
2022/11/15 11:04:54;;;;;;;3.03;1.27;;;;;;;11.68;81.09;100604.19;5010904;28;96737;-31
2022/11/15 11:07:23;;;;;;;4.60;1.38;;;;;;;11.71;80.77;100610.38;5012795;28;96793;-32
2022/11/15 11:10:19;;;;;;;3.95;1.23;;;;;;;11.73;81.04;100597.56;5010855;28;100861;-31
2022/11/15 11:12:44;;;;;;;5.57;1.35;;;;;;;11.74;80.54;100588.44;5004359;28;97105;-32
2022/11/15 11:15:13;;;;;;;2.17;1.10;;;;;;;11.79;80.26;100586.28;5011564;28;96698;-31
2022/11/15 11:18:01;;;;;;;2.88;1.17;;;;;;;11.83;80.23;100576.94;5011470;28;96860;-31
2022/11/15 11:20:37;;;;;;;3.55;0.90;;;;;;;11.87;79.50;100563.09;5012234;28;97748;-31
2022/11/15 11:23:12;;;;;;;3.42;1.38;;;;;;;11.88;80.25;100563.94;5010238;28;101021;-32
2022/11/15 11:26:12;;;;;;;2.35;1.08;;;;;;;11.84;80.60;100563.25;5011900;28;96532;-32
2022/11/15 11:29:02;;;;;;;1.80;0.93;;;;;;;11.85;79.94;100562.28;5010440;28;96740;-31
2022/11/15 11:31:40;;;;;;;3.58;1.45;;;;;;;11.81;79.17;100552.63;5011836;28;99359;-31
2022/11/15 11:34:31;;;;;;;6.45;0.93;;;;;;;11.79;79.50;100548.28;5012264;28;97839;-31
2022/11/15 11:37:31;;;;;;;2.45;0.93;;;;;;;11.77;79.53;100547.53;5012388;28;96628;-31
2022/11/15 11:40:02;;;;;;;2.50;1.10;;;;;;;11.76;78.18;100543.94;5012420;28;96538;-31
2022/11/15 11:42:58;;;;;;;5.20;1.50;;;;;;;11.82;79.35;100538.09;5010499;28;100800;-31
2022/11/15 11:45:36;;;;;;;0.98;0.68;;;;;;;11.92;77.44;100540.16;5012158;28;99208;-31
2022/11/15 11:48:12;;;;;;;1.13;0.68;;;;;;;11.94;77.95;100530.06;5012150;28;96536;-32
2022/11/15 11:50:38;;;;;;;4.22;0.82;;;;;;;12.01;77.20;100520.47;5010602;28;96717;-32
2022/11/15 11:53:32;;;;;;;3.33;0.95;;;;;;;12.12;78.18;100520.56;5011443;28;97342;-32
2022/11/15 11:56:04;;;;;;;3.97;1.30;;;;;;;12.21;78.05;100500.91;5011739;28;99326;-31
2022/11/15 11:58:41;;;;;;;0.77;0.70;;;;;;;12.18;75.53;100505.66;5010606;28;96563;-32